createdAt,value
2018-01-02T00:01:30.299Z,85.50
2018-01-02T00:03:58.338Z,85.50
2018-01-02T00:06:25.854Z,85.60
2018-01-02T00:08:53.446Z,85.70
2018-01-02T00:11:21.127Z,86.00
2018-01-02T00:13:48.627Z,86.10
2018-01-02T00:16:17.135Z,85.90
2018-01-02T00:18:44.649Z,86.00
2018-01-02T00:21:12.980Z,86.30
2018-01-02T00:23:40.508Z,86.10
2018-01-02T00:26:08.058Z,85.70
2018-01-02T00:28:35.549Z,85.90
2018-01-02T00:31:03.156Z,86.00
2018-01-02T00:33:30.655Z,85.90
2018-01-02T00:35:58.199Z,86.10
2018-01-02T00:38:25.708Z,86.20
2018-01-02T00:40:53.322Z,86.10
2018-01-02T00:43:20.999Z,86.60
2018-01-02T00:45:48.506Z,86.20
2018-01-02T00:48:16.140Z,86.10
2018-01-02T00:50:43.702Z,86.30
2018-01-02T00:53:11.189Z,86.10
2018-01-02T00:55:38.679Z,86.00
2018-01-02T00:58:07.257Z,85.70
2018-01-02T01:00:35.525Z,85.50
2018-01-02T01:03:04.286Z,85.40
2018-01-02T01:05:32.032Z,85.40
2018-01-02T01:07:59.528Z,85.30
2018-01-02T01:10:27.030Z,85.50
2018-01-02T01:12:54.565Z,85.60
2018-01-02T01:15:22.840Z,84.90
2018-01-02T01:17:51.092Z,85.10
2018-01-02T01:20:18.631Z,85.00
2018-01-02T01:22:46.968Z,84.70
2018-01-02T01:25:14.482Z,84.70
2018-01-02T01:27:42.078Z,84.60
2018-01-02T01:30:09.636Z,84.50
2018-01-02T01:32:37.895Z,85.50
2018-01-02T01:35:06.403Z,86.10
2018-01-02T01:37:33.918Z,86.10
2018-01-02T01:40:02.954Z,86.80
2018-01-02T01:42:30.552Z,86.80
2018-01-02T01:44:58.259Z,87.70
2018-01-02T01:47:26.565Z,87.00
2018-01-02T01:49:54.159Z,87.00
2018-01-02T01:52:21.728Z,87.20
2018-01-02T01:54:49.216Z,87.60
2018-01-02T01:57:16.748Z,87.40
2018-01-02T01:59:44.312Z,87.50
2018-01-02T02:02:12.027Z,87.60
2018-01-02T02:04:39.549Z,88.30
2018-01-02T02:07:07.830Z,89.20
2018-01-02T02:09:36.084Z,90.00
2018-01-02T02:12:04.399Z,90.10
2018-01-02T02:14:31.882Z,90.10
2018-01-02T02:16:59.379Z,90.80
2018-01-02T02:19:26.865Z,90.80
2018-01-02T02:21:55.121Z,91.10
2018-01-02T02:24:22.710Z,91.00
2018-01-02T02:26:50.272Z,91.40
2018-01-02T02:29:17.891Z,91.80
2018-01-02T02:31:45.373Z,92.00
2018-01-02T02:34:13.630Z,92.10
2018-01-02T02:36:41.226Z,92.10
2018-01-02T02:39:08.721Z,92.30
2018-01-02T02:41:36.363Z,92.40
2018-01-02T02:44:03.854Z,92.60
2018-01-02T02:46:31.354Z,92.60
2018-01-02T02:48:59.631Z,92.90
2018-01-02T02:51:27.891Z,93.00
2018-01-02T02:53:56.187Z,93.10
2018-01-02T02:56:23.676Z,93.10
2018-01-02T02:58:51.162Z,93.40
2018-01-02T03:01:18.671Z,93.20
2018-01-02T03:03:46.148Z,93.70
2018-01-02T03:06:13.627Z,93.60
2018-01-02T03:08:41.155Z,93.80
2018-01-02T03:11:08.691Z,93.70
2018-01-02T03:13:36.946Z,94.00
2018-01-02T03:16:04.534Z,94.00
2018-01-02T03:18:32.088Z,94.20
2018-01-02T03:21:00.349Z,94.30
2018-01-02T03:23:28.656Z,94.60
2018-01-02T03:25:56.220Z,94.60
2018-01-02T03:28:23.709Z,94.70
2018-01-02T03:30:51.319Z,94.80
2018-01-02T03:33:19.586Z,94.90
2018-01-02T03:35:47.890Z,94.90
2018-01-02T03:38:15.414Z,94.90
2018-01-02T03:40:43.721Z,95.60
2018-01-02T03:43:11.950Z,95.40
2018-01-02T03:45:39.463Z,95.40
2018-01-02T03:48:06.972Z,95.30
2018-01-02T03:50:34.467Z,95.50
2018-01-02T03:53:01.971Z,95.70
2018-01-02T03:55:29.460Z,95.50
2018-01-02T03:57:56.966Z,95.70
2018-01-02T04:00:24.499Z,95.90
2018-01-02T04:02:51.972Z,95.80
2018-01-02T04:05:19.512Z,95.90
2018-01-02T04:07:47.783Z,96.10
2018-01-02T04:10:16.036Z,96.10
2018-01-02T04:12:43.522Z,96.10
2018-01-02T04:15:11.802Z,96.10
2018-01-02T04:17:39.290Z,96.10
2018-01-02T04:20:06.916Z,96.00
2018-01-02T04:22:35.280Z,95.80
2018-01-02T04:25:03.536Z,95.80
2018-01-02T04:27:32.539Z,96.20
2018-01-02T04:30:00.047Z,96.10
2018-01-02T04:32:27.597Z,96.20
2018-01-02T04:34:55.103Z,96.20
2018-01-02T04:37:23.378Z,96.30
2018-01-02T04:39:52.421Z,96.30
2018-01-02T04:42:19.984Z,96.30
2018-01-02T04:44:47.500Z,96.30
2018-01-02T04:47:14.996Z,96.10
2018-01-02T04:49:42.542Z,96.20
2018-01-02T04:52:10.810Z,96.10
2018-01-02T04:54:39.088Z,96.20
2018-01-02T04:57:07.363Z,96.30
2018-01-02T04:59:35.669Z,96.20
2018-01-02T05:02:03.219Z,96.20
2018-01-02T05:04:30.775Z,96.50
2018-01-02T05:06:58.299Z,96.50
2018-01-02T05:09:25.891Z,96.90
2018-01-02T05:11:53.387Z,96.60
2018-01-02T05:14:20.907Z,96.70
2018-01-02T05:16:48.402Z,96.60
2018-01-02T05:19:15.892Z,96.40
2018-01-02T05:21:43.426Z,96.50
2018-01-02T05:24:10.939Z,96.60
2018-01-02T05:26:38.457Z,96.40
2018-01-02T05:29:05.955Z,96.40
2018-01-02T05:31:33.460Z,96.50
2018-01-02T05:34:00.955Z,96.50
2018-01-02T05:36:29.232Z,96.50
2018-01-02T05:38:57.494Z,96.60
2018-01-02T05:41:26.484Z,96.60
2018-01-02T05:43:55.530Z,96.50
2018-01-02T05:46:23.005Z,96.50
2018-01-02T05:48:50.530Z,96.70
2018-01-02T05:51:18.138Z,96.60
2018-01-02T05:53:45.625Z,96.40
2018-01-02T05:56:13.115Z,96.40
2018-01-02T05:58:40.628Z,96.40
2018-01-02T06:01:08.137Z,96.40
2018-01-02T06:03:35.642Z,96.30
2018-01-02T06:06:03.184Z,96.30
2018-01-02T06:08:30.748Z,96.40
2018-01-02T06:10:58.653Z,96.50
2018-01-02T06:13:26.164Z,96.40
2018-01-02T06:15:53.682Z,96.50
2018-01-02T06:18:21.997Z,96.70
2018-01-02T06:20:49.552Z,96.70
2018-01-02T06:23:17.039Z,97.00
2018-01-02T06:25:44.519Z,97.20
2018-01-02T06:28:12.807Z,97.90
2018-01-02T06:30:41.075Z,98.10
2018-01-02T06:33:09.331Z,98.30
2018-01-02T06:35:36.833Z,98.20
2018-01-02T06:38:04.371Z,98.20
2018-01-02T06:40:32.673Z,98.40
2018-01-02T06:43:00.196Z,98.40
2018-01-02T06:45:27.856Z,98.40
2018-01-02T06:47:55.384Z,98.60
2018-01-02T06:50:22.938Z,98.40
2018-01-02T06:52:50.477Z,98.50
2018-01-02T06:55:18.478Z,98.50
2018-01-02T06:57:45.975Z,98.60
2018-01-02T07:00:14.235Z,98.30
2018-01-02T07:02:41.850Z,98.30
2018-01-02T07:05:09.362Z,98.40
2018-01-02T07:07:37.627Z,98.30
2018-01-02T07:10:05.126Z,98.30
2018-01-02T07:12:32.696Z,98.30
2018-01-02T07:15:00.188Z,98.20
2018-01-02T07:17:28.230Z,98.20
2018-01-02T07:19:55.756Z,98.20
2018-01-02T07:22:23.286Z,98.30
2018-01-02T07:24:50.802Z,97.90
2018-01-02T07:27:19.237Z,97.80
2018-01-02T07:29:47.576Z,97.60
2018-01-02T07:32:15.064Z,97.60
2018-01-02T07:34:42.591Z,97.40
2018-01-02T07:37:10.817Z,97.30
2018-01-02T07:39:38.854Z,97.30
2018-01-02T07:42:06.363Z,97.10
2018-01-02T07:44:34.972Z,97.20
2018-01-02T07:47:02.460Z,97.20
2018-01-02T07:49:30.160Z,97.20
2018-01-02T07:51:58.719Z,97.30
2018-01-02T07:54:27.223Z,97.20
2018-01-02T07:56:54.884Z,97.10
2018-01-02T07:59:22.518Z,97.00
2018-01-02T08:01:50.056Z,97.10
2018-01-02T08:04:17.593Z,96.90
2018-01-02T08:06:45.141Z,96.80
2018-01-02T08:09:12.703Z,96.80
2018-01-02T08:11:40.579Z,97.00
2018-01-02T08:14:08.072Z,97.20
2018-01-02T08:16:35.573Z,97.20
2018-01-02T08:19:03.842Z,97.00
2018-01-02T08:21:32.184Z,97.00
2018-01-02T08:23:59.670Z,97.00
2018-01-02T08:26:27.176Z,97.30
2018-01-02T08:28:54.675Z,97.10
2018-01-02T08:31:22.179Z,97.60
2018-01-02T08:33:49.683Z,98.00
2018-01-02T08:36:17.167Z,98.20
2018-01-02T08:38:45.448Z,98.50
2018-01-02T08:41:15.486Z,98.50
2018-01-02T08:43:43.794Z,98.50
2018-01-02T08:46:12.105Z,98.90
2018-01-02T08:48:40.432Z,99.10
2018-01-02T08:51:07.946Z,98.80
2018-01-02T08:53:35.500Z,98.90
2018-01-02T08:56:03.059Z,98.80
2018-01-02T08:58:30.587Z,98.60
2018-01-02T09:00:58.112Z,98.70
2018-01-02T09:03:25.642Z,98.70
2018-01-02T09:05:53.149Z,98.50
2018-01-02T09:08:20.663Z,98.50
2018-01-02T09:10:48.951Z,98.30
2018-01-02T09:13:17.268Z,98.40
2018-01-02T09:15:44.806Z,98.40
2018-01-02T09:18:12.338Z,98.30
2018-01-02T09:20:40.591Z,98.20
2018-01-02T09:23:08.084Z,98.20
2018-01-02T09:25:36.367Z,98.20
2018-01-02T09:28:03.952Z,98.20
2018-01-02T09:30:31.446Z,98.20
2018-01-02T09:32:59.731Z,98.00
2018-01-02T09:35:27.241Z,98.00
2018-01-02T09:37:54.754Z,97.80
2018-01-02T09:40:23.036Z,96.90
2018-01-02T09:42:51.295Z,96.80
2018-01-02T09:45:18.783Z,96.80
2018-01-02T09:47:47.077Z,97.00
2018-01-02T09:50:14.572Z,97.00
2018-01-02T09:52:42.079Z,96.90
2018-01-02T09:55:10.395Z,96.80
2018-01-02T09:57:38.644Z,96.60
2018-01-02T10:00:06.121Z,96.60
2018-01-02T10:02:33.661Z,96.40
2018-01-02T10:05:01.178Z,96.60
2018-01-02T10:07:28.672Z,96.40
2018-01-02T10:09:56.191Z,96.10
2018-01-02T10:12:23.687Z,96.20
2018-01-02T10:14:51.190Z,96.20
2018-01-02T10:17:18.706Z,96.10
2018-01-02T10:19:46.198Z,96.30
2018-01-02T10:22:13.702Z,96.30
2018-01-02T10:24:41.983Z,96.20
2018-01-02T10:27:10.267Z,96.20
2018-01-02T10:29:38.511Z,96.00
2018-01-02T10:32:06.022Z,96.00
2018-01-02T10:34:33.547Z,96.10
2018-01-02T10:37:01.826Z,96.00
2018-01-02T10:39:29.331Z,95.90
2018-01-02T10:41:56.855Z,96.20
2018-01-02T10:44:24.431Z,96.20
2018-01-02T10:46:51.955Z,96.20
2018-01-02T10:49:19.805Z,96.10
2018-01-02T10:51:47.300Z,96.20
2018-01-02T10:54:14.825Z,96.10
2018-01-02T10:56:42.448Z,96.40
2018-01-02T10:59:09.937Z,96.30
2018-01-02T11:01:38.210Z,96.40
2018-01-02T11:04:05.714Z,96.40
2018-01-02T11:06:33.371Z,96.40
2018-01-02T11:09:01.656Z,96.10
2018-01-02T11:11:32.080Z,96.10
2018-01-02T11:14:00.108Z,96.20
2018-01-02T11:16:27.636Z,96.10
2018-01-02T11:18:55.275Z,96.00
2018-01-02T11:21:22.905Z,96.40
2018-01-02T11:23:50.512Z,96.30
2018-01-02T11:26:18.003Z,96.20
2018-01-02T11:28:45.499Z,96.10
2018-01-02T11:31:13.776Z,96.20
2018-01-02T11:33:42.192Z,96.30
2018-01-02T11:36:10.359Z,96.30
2018-01-02T11:38:37.865Z,96.30
2018-01-02T11:41:06.873Z,96.30
2018-01-02T11:43:34.471Z,96.30
2018-01-02T11:46:02.419Z,96.10
2018-01-02T11:48:30.675Z,96.20
2018-01-02T11:50:58.964Z,96.10
2018-01-02T11:53:27.259Z,96.20
2018-01-02T11:55:54.871Z,96.20
2018-01-02T11:58:24.267Z,96.30
2018-01-02T12:00:51.787Z,96.30
2018-01-02T12:03:19.285Z,96.60
2018-01-02T12:05:46.771Z,96.50
2018-01-02T12:08:14.327Z,96.40
2018-01-02T12:10:42.615Z,96.80
2018-01-02T12:13:10.883Z,96.60
2018-01-02T12:15:39.151Z,97.40
2018-01-02T12:18:07.453Z,98.80
2018-01-02T12:20:34.915Z,98.40
2018-01-02T12:23:02.693Z,96.90
2018-01-02T12:25:30.210Z,96.70
2018-01-02T12:27:58.491Z,96.40
2018-01-02T12:30:26.323Z,96.40
2018-01-02T12:32:53.834Z,96.30
2018-01-02T12:35:21.331Z,96.20
2018-01-02T12:37:48.839Z,96.20
2018-01-02T12:40:17.088Z,96.50
2018-01-02T12:42:45.350Z,96.40
2018-01-02T12:45:12.903Z,96.40
2018-01-02T12:47:40.489Z,96.60
2018-01-02T12:50:08.089Z,96.60
2018-01-02T12:52:35.689Z,96.60
2018-01-02T12:55:03.203Z,96.70
2018-01-02T12:57:31.040Z,96.70
2018-01-02T12:59:59.112Z,96.60
2018-01-02T13:02:27.232Z,96.60
2018-01-02T13:04:54.762Z,96.50
2018-01-02T13:07:23.048Z,96.60
2018-01-02T13:09:50.573Z,96.60
2018-01-02T13:12:19.008Z,97.90
2018-01-02T13:14:46.576Z,98.00
2018-01-02T13:17:14.511Z,97.90
2018-01-02T13:19:42.784Z,97.60
2018-01-02T13:22:11.071Z,98.50
2018-01-02T13:24:38.571Z,98.50
2018-01-02T13:27:06.055Z,97.80
2018-01-02T13:29:33.574Z,97.50
2018-01-02T13:32:01.061Z,97.40
2018-01-02T13:34:28.559Z,97.40
2018-01-02T13:36:56.101Z,97.60
2018-01-02T13:39:24.361Z,97.50
2018-01-02T13:41:51.852Z,97.50
2018-01-02T13:44:20.143Z,97.40
2018-01-02T13:46:47.710Z,97.40
2018-01-02T13:49:15.254Z,97.40
2018-01-02T13:51:42.809Z,97.40
2018-01-02T13:54:11.073Z,97.40
2018-01-02T13:56:39.352Z,97.30
2018-01-02T13:59:07.627Z,97.40
2018-01-02T14:01:35.889Z,97.20
2018-01-02T14:04:03.475Z,97.20
2018-01-02T14:06:31.784Z,97.20
2018-01-02T14:08:59.323Z,97.20
2018-01-02T14:11:26.871Z,97.10
2018-01-02T14:13:54.456Z,97.10
2018-01-02T14:16:21.965Z,97.10
2018-01-02T14:18:49.454Z,97.00
2018-01-02T14:21:16.966Z,96.90
2018-01-02T14:23:44.446Z,96.80
2018-01-02T14:26:12.724Z,96.60
2018-01-02T14:28:40.298Z,96.60
2018-01-02T14:31:07.823Z,96.70
2018-01-02T14:33:35.620Z,96.60
2018-01-02T14:36:03.205Z,96.60
2018-01-02T14:38:30.697Z,96.40
2018-01-02T14:40:58.189Z,96.50
2018-01-02T14:43:26.486Z,96.20
2018-01-02T14:45:53.974Z,96.20
2018-01-02T14:48:21.528Z,96.10
2018-01-02T14:50:49.040Z,96.10
2018-01-02T14:53:17.296Z,95.80
2018-01-02T14:55:44.892Z,95.80
2018-01-02T14:58:12.414Z,95.70
2018-01-02T15:00:40.695Z,95.70
2018-01-02T15:03:08.292Z,95.70
2018-01-02T15:05:35.861Z,95.50
2018-01-02T15:08:03.414Z,95.40
2018-01-02T15:10:30.937Z,95.70
2018-01-02T15:12:58.446Z,95.80
2018-01-02T15:15:25.941Z,95.90
2018-01-02T15:17:53.536Z,96.10
2018-01-02T15:20:21.820Z,96.20
2018-01-02T15:22:49.303Z,96.20
2018-01-02T15:25:16.794Z,96.00
2018-01-02T15:27:45.812Z,96.00
2018-01-02T15:30:14.059Z,96.10
2018-01-02T15:32:41.576Z,96.10
2018-01-02T15:35:09.124Z,96.30
2018-01-02T15:37:36.776Z,95.90
2018-01-02T15:40:05.038Z,95.90
2018-01-02T15:42:32.620Z,95.90
2018-01-02T15:45:00.113Z,95.90
2018-01-02T15:47:27.603Z,95.80
2018-01-02T15:49:56.611Z,95.90
2018-01-02T15:52:25.661Z,95.80
2018-01-02T15:54:53.170Z,95.90
2018-01-02T15:57:21.465Z,95.90
2018-01-02T15:59:49.132Z,95.90
2018-01-02T16:02:16.645Z,96.00
2018-01-02T16:04:44.176Z,96.10
2018-01-02T16:07:11.732Z,96.10
2018-01-02T16:09:39.250Z,96.00
2018-01-02T16:12:07.559Z,96.00
2018-01-02T16:14:35.055Z,96.00
2018-01-02T16:17:02.545Z,95.90
2018-01-02T16:19:30.822Z,95.90
2018-01-02T16:21:58.331Z,95.90
2018-01-02T16:24:25.835Z,96.00
2018-01-02T16:26:53.356Z,95.80
2018-01-02T16:29:20.848Z,95.60
2018-01-02T16:31:48.407Z,95.30
2018-01-02T16:34:16.684Z,95.10
2018-01-02T16:36:44.932Z,95.10
2018-01-02T16:39:12.439Z,95.00
2018-01-02T16:41:39.960Z,94.90
2018-01-02T16:44:07.450Z,94.70
2018-01-02T16:46:35.718Z,94.90
2018-01-02T16:49:04.003Z,94.90
2018-01-02T16:51:31.485Z,94.90
2018-01-02T16:53:58.990Z,94.90
2018-01-02T16:56:26.503Z,95.00
2018-01-02T16:58:53.996Z,95.30
2018-01-02T17:01:21.479Z,95.60
2018-01-02T17:03:49.790Z,96.20
2018-01-02T17:06:17.299Z,96.00
2018-01-02T17:08:44.784Z,96.10
2018-01-02T17:11:13.070Z,96.40
2018-01-02T17:13:40.614Z,96.40
2018-01-02T17:16:08.868Z,96.80
2018-01-02T17:18:36.396Z,96.70
2018-01-02T17:21:03.903Z,96.90
2018-01-02T17:23:32.171Z,97.00
2018-01-02T17:26:00.512Z,97.30
2018-01-02T17:28:28.045Z,97.00
2018-01-02T17:30:55.652Z,97.00
2018-01-02T17:33:23.924Z,97.00
2018-01-02T17:35:51.440Z,97.10
2018-01-02T17:38:18.934Z,97.10
2018-01-02T17:40:46.459Z,97.10
2018-01-02T17:43:13.949Z,97.10
2018-01-02T17:45:41.508Z,97.00
2018-01-02T17:48:09.043Z,97.00
2018-01-02T17:50:36.540Z,96.60
2018-01-02T17:53:04.416Z,96.30
2018-01-02T17:55:32.255Z,95.90
2018-01-02T17:58:00.210Z,95.80
2018-01-02T18:00:28.016Z,96.00
2018-01-02T18:02:55.539Z,95.80
2018-01-02T18:05:23.090Z,96.00
2018-01-02T18:07:51.051Z,96.20
2018-01-02T18:10:18.570Z,96.40
2018-01-02T18:12:47.298Z,96.80
2018-01-02T18:15:15.220Z,96.80
2018-01-02T18:17:42.769Z,97.00
2018-01-02T18:20:10.235Z,97.20
2018-01-02T18:22:38.501Z,97.50
2018-01-02T18:25:06.066Z,97.50
2018-01-02T18:27:33.574Z,97.60
2018-01-02T18:30:01.069Z,98.00
2018-01-02T18:32:29.071Z,99.90
2018-01-02T18:34:57.737Z,99.90
2018-01-02T18:37:25.762Z,99.90
2018-01-02T18:39:53.832Z,99.90
2018-01-02T18:42:21.329Z,99.90
2018-01-02T18:44:49.662Z,99.90
2018-01-02T18:47:17.203Z,99.90
2018-01-02T18:49:44.715Z,99.90
2018-01-02T18:52:12.265Z,99.90
2018-01-02T18:54:39.800Z,99.90
2018-01-02T18:57:07.296Z,99.90
2018-01-02T18:59:34.777Z,98.80
2018-01-02T19:02:02.309Z,99.00
2018-01-02T19:04:29.799Z,99.10
2018-01-02T19:06:58.070Z,98.90
2018-01-02T19:09:25.608Z,98.90
2018-01-02T19:11:53.094Z,98.90
2018-01-02T19:14:21.360Z,98.70
2018-01-02T19:16:48.883Z,98.70
2018-01-02T19:19:16.400Z,98.80
2018-01-02T19:21:44.841Z,98.90
2018-01-02T19:24:12.348Z,98.90
2018-01-02T19:26:39.843Z,98.90
2018-01-02T19:29:07.384Z,98.70
2018-01-02T19:31:35.723Z,98.70
2018-01-02T19:34:04.015Z,98.80
2018-01-02T19:36:32.281Z,98.80
2018-01-02T19:39:00.572Z,99.90
2018-01-02T19:41:28.063Z,99.90
2018-01-02T19:43:56.086Z,99.90
2018-01-02T19:46:23.619Z,99.90
2018-01-02T19:48:51.224Z,99.40
2018-01-02T19:51:18.719Z,99.40
2018-01-02T19:53:46.235Z,99.30
2018-01-02T19:56:13.790Z,99.20
2018-01-02T19:58:42.066Z,99.20
2018-01-02T20:01:09.975Z,99.20
2018-01-02T20:03:37.775Z,99.10
2018-01-02T20:06:05.451Z,99.10
2018-01-02T20:08:33.757Z,99.10
2018-01-02T20:11:01.256Z,99.10
2018-01-02T20:13:28.774Z,99.10
2018-01-02T20:15:56.300Z,99.10
2018-01-02T20:18:30.423Z,98.90
2018-01-02T20:20:58.728Z,98.90
2018-01-02T20:23:26.220Z,98.90
2018-01-02T20:25:53.740Z,98.70
2018-01-02T20:28:21.258Z,98.70
2018-01-02T20:30:49.589Z,98.70
2018-01-02T20:33:17.082Z,98.50
2018-01-02T20:35:44.604Z,98.50
2018-01-02T20:38:12.093Z,98.50
2018-01-02T20:40:40.363Z,98.40
2018-01-02T20:43:07.886Z,98.40
2018-01-02T20:45:35.384Z,98.40
2018-01-02T20:48:02.880Z,98.40
2018-01-02T20:50:31.346Z,98.50
2018-01-02T20:52:59.636Z,98.60
2018-01-02T20:55:27.891Z,98.70
2018-01-02T20:57:56.186Z,98.90
2018-01-02T21:00:24.465Z,98.80
2018-01-02T21:02:52.726Z,98.80
2018-01-02T21:05:21.015Z,98.90
2018-01-02T21:07:49.327Z,98.90
2018-01-02T21:10:16.827Z,98.90
2018-01-02T21:12:44.333Z,98.90
2018-01-02T21:15:11.833Z,98.80
2018-01-02T21:17:39.339Z,98.70
2018-01-02T21:20:06.855Z,98.70
2018-01-02T21:22:34.451Z,98.80
2018-01-02T21:25:01.951Z,98.70
2018-01-02T21:27:30.419Z,98.70
2018-01-02T21:29:57.982Z,98.70
2018-01-02T21:32:25.489Z,98.70
2018-01-02T21:34:53.765Z,98.60
2018-01-02T21:37:21.273Z,98.70
2018-01-02T21:39:48.792Z,98.60
2018-01-02T21:42:17.076Z,98.70
2018-01-02T21:44:45.358Z,98.60
2018-01-02T21:47:13.634Z,98.50
2018-01-02T21:49:41.248Z,98.50
2018-01-02T21:52:08.760Z,98.50
2018-01-02T21:54:36.344Z,98.50
2018-01-02T21:57:03.870Z,98.40
2018-01-02T21:59:31.363Z,98.40
2018-01-02T22:01:58.880Z,98.30
2018-01-02T22:04:27.270Z,98.30
2018-01-02T22:06:54.826Z,98.30
2018-01-02T22:09:23.087Z,98.20
2018-01-02T22:11:52.200Z,98.10
2018-01-02T22:14:19.700Z,98.10
2018-01-02T22:16:47.236Z,98.10
2018-01-02T22:19:14.777Z,98.20
2018-01-02T22:21:42.275Z,98.20
2018-01-02T22:24:09.814Z,98.10
2018-01-02T22:26:37.376Z,98.10
2018-01-02T22:29:04.887Z,98.20
2018-01-02T22:31:33.163Z,98.20
2018-01-02T22:34:00.739Z,98.10
2018-01-02T22:36:28.998Z,98.00
2018-01-02T22:38:57.289Z,98.00
2018-01-02T22:41:25.565Z,98.00
2018-01-02T22:43:54.905Z,98.00
2018-01-02T22:46:22.396Z,98.00
2018-01-02T22:48:49.912Z,98.00
2018-01-02T22:51:17.457Z,98.10
2018-01-02T22:53:45.022Z,98.10
2018-01-02T22:56:12.581Z,98.20
2018-01-02T22:58:40.073Z,98.30
2018-01-02T23:01:07.580Z,98.30
2018-01-02T23:03:35.869Z,98.20
2018-01-02T23:06:03.368Z,98.20
2018-01-02T23:08:30.900Z,98.10
2018-01-02T23:10:58.430Z,98.10
2018-01-02T23:13:26.719Z,98.10
2018-01-02T23:15:54.221Z,98.10
2018-01-02T23:18:21.752Z,98.00
2018-01-02T23:20:49.244Z,98.00
2018-01-02T23:23:16.734Z,98.00
2018-01-02T23:25:45.012Z,98.10
2018-01-02T23:28:12.499Z,97.90
2018-01-02T23:30:40.037Z,97.90
2018-01-02T23:33:08.362Z,97.80
2018-01-02T23:35:35.884Z,97.80
2018-01-02T23:38:04.134Z,97.60
2018-01-02T23:40:31.648Z,97.60
2018-01-02T23:42:59.183Z,97.50
2018-01-02T23:45:26.687Z,97.40
2018-01-02T23:47:54.196Z,97.40
2018-01-02T23:50:21.709Z,97.40
2018-01-02T23:52:49.204Z,97.30
2018-01-02T23:55:17.479Z,97.00
2018-01-02T23:57:45.734Z,96.90
